sensor_id;sensor_type;location;lat;lon;timestamp;pressure;altitude;pressure_sealevel;temperature;humidity
4836;BME280;2432;51.226;6.904;2022-11-21T00:00:49;99735.28;;;5.89;100.00
4836;BME280;2432;51.226;6.904;2022-11-21T00:03:17;99745.06;;;5.75;100.00
4836;BME280;2432;51.226;6.904;2022-11-21T00:05:45;99740.13;;;5.55;100.00
4836;BME280;2432;51.226;6.904;2022-11-21T00:08:14;99742.81;;;5.50;100.00
4836;BME280;2432;51.226;6.904;2022-11-21T00:10:41;99741.94;;;5.50;100.00
4836;BME280;2432;51.226;6.904;2022-11-21T00:13:18;99741.00;;;5.54;100.00
4836;BME280;2432;51.226;6.904;2022-11-21T00:15:46;99735.78;;;5.55;100.00
4836;BME280;2432;51.226;6.904;2022-11-21T00:18:13;99740.13;;;5.55;100.00
4836;BME280;2432;51.226;6.904;2022-11-21T00:20:41;99737.59;;;5.52;100.00
4836;BME280;2432;51.226;6.904;2022-11-21T00:23:08;99740.31;;;5.43;100.00
4836;BME280;2432;51.226;6.904;2022-11-21T00:25:38;99748.03;;;5.46;100.00
4836;BME280;2432;51.226;6.904;2022-11-21T00:28:04;99741.19;;;5.42;100.00
4836;BME280;2432;51.226;6.904;2022-11-21T00:30:31;99753.28;;;5.43;100.00
4836;BME280;2432;51.226;6.904;2022-11-21T00:32:58;99758.50;;;5.41;100.00
4836;BME280;2432;51.226;6.904;2022-11-21T00:35:24;99756.78;;;5.42;100.00
4836;BME280;2432;51.226;6.904;2022-11-21T00:37:51;99751.59;;;5.40;100.00
4836;BME280;2432;51.226;6.904;2022-11-21T00:40:17;99766.38;;;5.33;100.00
4836;BME280;2432;51.226;6.904;2022-11-21T00:42:44;99756.09;;;5.27;100.00
4836;BME280;2432;51.226;6.904;2022-11-21T00:45:10;99770.84;;;5.24;100.00
4836;BME280;2432;51.226;6.904;2022-11-21T00:47:37;99767.38;;;5.25;100.00
4836;BME280;2432;51.226;6.904;2022-11-21T00:50:04;99767.47;;;5.17;100.00
4836;BME280;2432;51.226;6.904;2022-11-21T00:52:30;99763.22;;;5.10;100.00
4836;BME280;2432;51.226;6.904;2022-11-21T00:54:57;99767.47;;;5.16;100.00
4836;BME280;2432;51.226;6.904;2022-11-21T00:57:23;99763.16;;;5.16;100.00
4836;BME280;2432;51.226;6.904;2022-11-21T00:59:50;99766.56;;;5.20;100.00
4836;BME280;2432;51.226;6.904;2022-11-21T01:02:16;99771.75;;;5.18;100.00
4836;BME280;2432;51.226;6.904;2022-11-21T01:04:42;99771.94;;;5.06;100.00
4836;BME280;2432;51.226;6.904;2022-11-21T01:07:12;99772.75;;;5.09;100.00
4836;BME280;2432;51.226;6.904;2022-11-21T01:09:39;99772.81;;;5.03;100.00
4836;BME280;2432;51.226;6.904;2022-11-21T01:12:05;99783.13;;;5.08;100.00
4836;BME280;2432;51.226;6.904;2022-11-21T01:14:31;99779.72;;;5.06;100.00
4836;BME280;2432;51.226;6.904;2022-11-21T01:16:58;99774.63;;;4.97;100.00
4836;BME280;2432;51.226;6.904;2022-11-21T01:19:24;99771.16;;;4.98;100.00
4836;BME280;2432;51.226;6.904;2022-11-21T01:21:51;99768.56;;;4.95;100.00
4836;BME280;2432;51.226;6.904;2022-11-21T01:24:17;99779.84;;;4.92;100.00
4836;BME280;2432;51.226;6.904;2022-11-21T01:26:44;99776.38;;;4.96;100.00
4836;BME280;2432;51.226;6.904;2022-11-21T01:29:10;99790.22;;;4.95;100.00
4836;BME280;2432;51.226;6.904;2022-11-21T01:31:37;99786.78;;;4.92;100.00
4836;BME280;2432;51.226;6.904;2022-11-21T01:34:03;99792.78;;;4.97;100.00
4836;BME280;2432;51.226;6.904;2022-11-21T01:36:31;99791.09;;;4.93;100.00
4836;BME280;2432;51.226;6.904;2022-11-21T01:39:00;99800.56;;;4.97;100.00
4836;BME280;2432;51.226;6.904;2022-11-21T01:41:30;99792.78;;;4.97;100.00
4836;BME280;2432;51.226;6.904;2022-11-21T01:44:04;99801.34;;;5.02;100.00
4836;BME280;2432;51.226;6.904;2022-11-21T01:46:32;99784.06;;;5.02;100.00
4836;BME280;2432;51.226;6.904;2022-11-21T01:51:43;99794.56;;;4.92;100.00
4836;BME280;2432;51.226;6.904;2022-11-21T01:54:26;99792.88;;;4.86;100.00
4836;BME280;2432;51.226;6.904;2022-11-21T01:59:40;99798.22;;;4.72;100.00
4836;BME280;2432;51.226;6.904;2022-11-21T02:02:10;99796.41;;;4.77;100.00
4836;BME280;2432;51.226;6.904;2022-11-21T02:04:40;99799.00;;;4.77;100.00
4836;BME280;2432;51.226;6.904;2022-11-21T02:07:09;99794.69;;;4.79;100.00
4836;BME280;2432;51.226;6.904;2022-11-21T02:09:40;99799.00;;;4.80;100.00
4836;BME280;2432;51.226;6.904;2022-11-21T02:12:16;99794.75;;;4.73;100.00
4836;BME280;2432;51.226;6.904;2022-11-21T02:14:44;99793.81;;;4.80;100.00
4836;BME280;2432;51.226;6.904;2022-11-21T02:17:11;99793.75;;;4.88;100.00
4836;BME280;2432;51.226;6.904;2022-11-21T02:19:58;99786.03;;;4.80;100.00
4836;BME280;2432;51.226;6.904;2022-11-21T02:25:31;99780.03;;;4.78;100.00
4836;BME280;2432;51.226;6.904;2022-11-21T02:28:13;99782.59;;;4.77;100.00
4836;BME280;2432;51.226;6.904;2022-11-21T02:30:41;99787.84;;;4.72;100.00
4836;BME280;2432;51.226;6.904;2022-11-21T02:33:09;99785.22;;;4.75;100.00
4836;BME280;2432;51.226;6.904;2022-11-21T02:35:35;99794.78;;;4.72;100.00
4836;BME280;2432;51.226;6.904;2022-11-21T02:38:12;99799.97;;;4.70;100.00
4836;BME280;2432;51.226;6.904;2022-11-21T02:40:50;99799.91;;;4.76;100.00
4836;BME280;2432;51.226;6.904;2022-11-21T02:43:21;99796.38;;;4.83;100.00
4836;BME280;2432;51.226;6.904;2022-11-21T02:45:49;99803.28;;;4.85;100.00
4836;BME280;2432;51.226;6.904;2022-11-21T02:48:16;99798.16;;;4.80;100.00
4836;BME280;2432;51.226;6.904;2022-11-21T02:50:44;99804.19;;;4.80;100.00
4836;BME280;2432;51.226;6.904;2022-11-21T02:53:14;99798.94;;;4.87;100.00
4836;BME280;2432;51.226;6.904;2022-11-21T02:55:41;99804.13;;;4.88;100.00
4836;BME280;2432;51.226;6.904;2022-11-21T02:58:08;99798.09;;;4.85;100.00
4836;BME280;2432;51.226;6.904;2022-11-21T03:00:36;99801.53;;;4.87;100.00
4836;BME280;2432;51.226;6.904;2022-11-21T03:03:03;99796.41;;;4.80;100.00
4836;BME280;2432;51.226;6.904;2022-11-21T03:05:30;99800.72;;;4.81;100.00
4836;BME280;2432;51.226;6.904;2022-11-21T03:07:56;99799.88;;;4.81;100.00
4836;BME280;2432;51.226;6.904;2022-11-21T03:10:23;99796.41;;;4.77;100.00
4836;BME280;2432;51.226;6.904;2022-11-21T03:12:49;99799.91;;;4.76;100.00
4836;BME280;2432;51.226;6.904;2022-11-21T03:15:16;99800.78;;;4.75;100.00
4836;BME280;2432;51.226;6.904;2022-11-21T03:17:42;99793.94;;;4.68;100.00
4836;BME280;2432;51.226;6.904;2022-11-21T03:20:09;99795.66;;;4.68;100.00
4836;BME280;2432;51.226;6.904;2022-11-21T03:22:36;99788.78;;;4.65;100.00
4836;BME280;2432;51.226;6.904;2022-11-21T03:25:03;99797.38;;;4.70;100.00
4836;BME280;2432;51.226;6.904;2022-11-21T03:27:29;99799.16;;;4.65;100.00
4836;BME280;2432;51.226;6.904;2022-11-21T03:29:56;99797.44;;;4.64;100.00
4836;BME280;2432;51.226;6.904;2022-11-21T03:32:22;99800.84;;;4.68;100.00
4836;BME280;2432;51.226;6.904;2022-11-21T03:34:49;99793.03;;;4.72;100.00
4836;BME280;2432;51.226;6.904;2022-11-21T03:37:15;99799.88;;;4.79;100.00
4836;BME280;2432;51.226;6.904;2022-11-21T03:39:42;99798.22;;;4.72;100.00
4836;BME280;2432;51.226;6.904;2022-11-21T03:42:08;99798.22;;;4.72;100.00
4836;BME280;2432;51.226;6.904;2022-11-21T03:44:35;99805.09;;;4.76;100.00
4836;BME280;2432;51.226;6.904;2022-11-21T03:47:01;99803.44;;;4.71;100.00
4836;BME280;2432;51.226;6.904;2022-11-21T03:49:28;99797.34;;;4.73;100.00
4836;BME280;2432;51.226;6.904;2022-11-21T03:51:54;99793.81;;;4.77;100.00
4836;BME280;2432;51.226;6.904;2022-11-21T03:54:21;99797.28;;;4.81;100.00
4836;BME280;2432;51.226;6.904;2022-11-21T03:56:47;99800.69;;;4.85;100.00
4836;BME280;2432;51.226;6.904;2022-11-21T03:59:13;99804.97;;;4.86;100.00
4836;BME280;2432;51.226;6.904;2022-11-21T04:01:40;99807.59;;;4.84;100.00
4836;BME280;2432;51.226;6.904;2022-11-21T04:04:06;99806.75;;;4.83;100.00
4836;BME280;2432;51.226;6.904;2022-11-21T04:06:33;99806.91;;;4.70;100.00
4836;BME280;2432;51.226;6.904;2022-11-21T04:08:59;99808.59;;;4.72;100.00
4836;BME280;2432;51.226;6.904;2022-11-21T04:11:26;99806.94;;;4.64;100.00
4836;BME280;2432;51.226;6.904;2022-11-21T04:13:52;99811.34;;;4.56;100.00
4836;BME280;2432;51.226;6.904;2022-11-21T04:16:19;99812.16;;;4.59;100.00
4836;BME280;2432;51.226;6.904;2022-11-21T04:18:46;99813.97;;;4.51;100.00
4836;BME280;2432;51.226;6.904;2022-11-21T04:21:12;99807.00;;;4.56;100.00
4836;BME280;2432;51.226;6.904;2022-11-21T04:23:39;99803.50;;;4.63;100.00
4836;BME280;2432;51.226;6.904;2022-11-21T04:26:05;99815.53;;;4.67;100.00
4836;BME280;2432;51.226;6.904;2022-11-21T04:28:32;99819.84;;;4.71;100.00
4836;BME280;2432;51.226;6.904;2022-11-21T04:31:03;99815.53;;;4.70;100.00
4836;BME280;2432;51.226;6.904;2022-11-21T04:33:36;99815.53;;;4.67;100.00
4836;BME280;2432;51.226;6.904;2022-11-21T04:36:03;99812.94;;;4.70;100.00
4836;BME280;2432;51.226;6.904;2022-11-21T04:38:29;99813.75;;;4.74;100.00
4836;BME280;2432;51.226;6.904;2022-11-21T04:40:56;99817.22;;;4.73;100.00
4836;BME280;2432;51.226;6.904;2022-11-21T04:43:22;99812.91;;;4.73;100.00
4836;BME280;2432;51.226;6.904;2022-11-21T04:45:49;99819.00;;;4.66;100.00
4836;BME280;2432;51.226;6.904;2022-11-21T04:48:15;99808.63;;;4.69;100.00
4836;BME280;2432;51.226;6.904;2022-11-21T04:50:42;99804.28;;;4.68;100.00
4836;BME280;2432;51.226;6.904;2022-11-21T04:53:08;99806.03;;;4.69;100.00
4836;BME280;2432;51.226;6.904;2022-11-21T04:55:35;99804.31;;;4.70;100.00
4836;BME280;2432;51.226;6.904;2022-11-21T04:58:01;99797.38;;;4.72;100.00
4836;BME280;2432;51.226;6.904;2022-11-21T05:00:28;99802.56;;;4.72;100.00
4836;BME280;2432;51.226;6.904;2022-11-21T05:03:00;99793.00;;;4.75;100.00
4836;BME280;2432;51.226;6.904;2022-11-21T05:05:27;99802.53;;;4.73;100.00
4836;BME280;2432;51.226;6.904;2022-11-21T05:07:53;99802.53;;;4.73;100.00
4836;BME280;2432;51.226;6.904;2022-11-21T05:10:20;99810.31;;;4.72;100.00
4836;BME280;2432;51.226;6.904;2022-11-21T05:12:46;99800.84;;;4.68;100.00
4836;BME280;2432;51.226;6.904;2022-11-21T05:15:31;99799.06;;;4.73;100.00
4836;BME280;2432;51.226;6.904;2022-11-21T05:17:58;99799.97;;;4.69;100.00
4836;BME280;2432;51.226;6.904;2022-11-21T05:20:25;99793.06;;;4.69;100.00
4836;BME280;2432;51.226;6.904;2022-11-21T05:22:51;99791.38;;;4.65;100.00
4836;BME280;2432;51.226;6.904;2022-11-21T05:25:18;99792.28;;;4.63;100.00
4836;BME280;2432;51.226;6.904;2022-11-21T05:27:44;99785.34;;;4.65;100.00
4836;BME280;2432;51.226;6.904;2022-11-21T05:30:12;99783.56;;;4.70;100.00
4836;BME280;2432;51.226;6.904;2022-11-21T05:32:38;99781.78;;;4.73;100.00
4836;BME280;2432;51.226;6.904;2022-11-21T05:35:05;99786.09;;;4.74;100.00
4836;BME280;2432;51.226;6.904;2022-11-21T05:37:33;99781.75;;;4.75;100.00
4836;BME280;2432;51.226;6.904;2022-11-21T05:39:59;99782.63;;;4.78;100.00
4836;BME280;2432;51.226;6.904;2022-11-21T05:42:26;99790.34;;;4.81;100.00
4836;BME280;2432;51.226;6.904;2022-11-21T05:45:11;99783.41;;;4.83;100.00
4836;BME280;2432;51.226;6.904;2022-11-21T05:47:40;99780.81;;;4.83;100.00
4836;BME280;2432;51.226;6.904;2022-11-21T05:50:07;99786.00;;;4.83;100.00
4836;BME280;2432;51.226;6.904;2022-11-21T05:52:33;99784.28;;;4.82;100.00
4836;BME280;2432;51.226;6.904;2022-11-21T05:55:00;99785.13;;;4.85;100.00
4836;BME280;2432;51.226;6.904;2022-11-21T05:57:26;99786.84;;;4.87;100.00
4836;BME280;2432;51.226;6.904;2022-11-21T05:59:52;99780.81;;;4.87;100.00
4836;BME280;2432;51.226;6.904;2022-11-21T06:02:19;99781.63;;;4.89;100.00
4836;BME280;2432;51.226;6.904;2022-11-21T06:05:04;99785.06;;;4.91;100.00
4836;BME280;2432;51.226;6.904;2022-11-21T06:07:31;99782.47;;;4.91;100.00
4836;BME280;2432;51.226;6.904;2022-11-21T06:09:57;99777.28;;;4.91;100.00
4836;BME280;2432;51.226;6.904;2022-11-21T06:12:24;99769.47;;;4.94;100.00
4836;BME280;2432;51.226;6.904;2022-11-21T06:14:51;99773.75;;;4.95;100.00
4836;BME280;2432;51.226;6.904;2022-11-21T06:17:17;99769.47;;;4.95;100.00
4836;BME280;2432;51.226;6.904;2022-11-21T06:19:44;99776.34;;;4.98;100.00
4836;BME280;2432;51.226;6.904;2022-11-21T06:22:10;99773.75;;;4.98;100.00
4836;BME280;2432;51.226;6.904;2022-11-21T06:24:36;99767.72;;;4.96;100.00
4836;BME280;2432;51.226;6.904;2022-11-21T06:27:03;99777.22;;;4.94;100.00
4836;BME280;2432;51.226;6.904;2022-11-21T06:29:29;99770.34;;;4.93;100.00
4836;BME280;2432;51.226;6.904;2022-11-21T06:31:56;99774.63;;;4.97;100.00
4836;BME280;2432;51.226;6.904;2022-11-21T06:34:25;99772.00;;;4.98;100.00
4836;BME280;2432;51.226;6.904;2022-11-21T06:36:52;99760.78;;;4.95;100.00
4836;BME280;2432;51.226;6.904;2022-11-21T06:39:19;99771.19;;;4.93;100.00
4836;BME280;2432;51.226;6.904;2022-11-21T06:41:45;99761.69;;;4.94;100.00
4836;BME280;2432;51.226;6.904;2022-11-21T06:44:17;99773.75;;;4.98;100.00
4836;BME280;2432;51.226;6.904;2022-11-21T06:46:44;99769.38;;;5.01;100.00
4836;BME280;2432;51.226;6.904;2022-11-21T06:49:16;99765.00;;;5.03;100.00
4836;BME280;2432;51.226;6.904;2022-11-21T06:51:42;99765.03;;;5.05;100.00
4836;BME280;2432;51.226;6.904;2022-11-21T06:54:09;99770.22;;;5.05;100.00
4836;BME280;2432;51.226;6.904;2022-11-21T06:56:41;99763.31;;;5.04;100.00
4836;BME280;2432;51.226;6.904;2022-11-21T06:59:08;99763.31;;;5.01;100.00
4836;BME280;2432;51.226;6.904;2022-11-21T07:01:34;99766.78;;;5.01;100.00
4836;BME280;2432;51.226;6.904;2022-11-21T07:04:01;99766.75;;;5.03;100.00
4836;BME280;2432;51.226;6.904;2022-11-21T07:06:27;99759.84;;;5.05;100.00
4836;BME280;2432;51.226;6.904;2022-11-21T07:08:54;99772.78;;;5.06;100.00
4836;BME280;2432;51.226;6.904;2022-11-21T07:11:41;99769.28;;;5.09;100.00
4836;BME280;2432;51.226;6.904;2022-11-21T07:14:07;99768.41;;;5.10;100.00
4836;BME280;2432;51.226;6.904;2022-11-21T07:16:34;99764.06;;;5.10;100.00
4836;BME280;2432;51.226;6.904;2022-11-21T07:19:01;99756.31;;;5.09;100.00
4836;BME280;2432;51.226;6.904;2022-11-21T07:21:28;99765.78;;;5.13;100.00
4836;BME280;2432;51.226;6.904;2022-11-21T07:23:54;99767.50;;;5.14;100.00
4836;BME280;2432;51.226;6.904;2022-11-21T07:26:21;99763.22;;;5.10;100.00
4836;BME280;2432;51.226;6.904;2022-11-21T07:28:47;99760.59;;;5.11;100.00
4836;BME280;2432;51.226;6.904;2022-11-21T07:31:14;99763.19;;;5.11;100.00
4836;BME280;2432;51.226;6.904;2022-11-21T07:33:41;99750.28;;;5.08;100.00
4836;BME280;2432;51.226;6.904;2022-11-21T07:36:09;99752.81;;;5.13;100.00
4836;BME280;2432;51.226;6.904;2022-11-21T07:38:36;99745.91;;;5.14;100.00
4836;BME280;2432;51.226;6.904;2022-11-21T07:41:02;99746.69;;;5.17;100.00
4836;BME280;2432;51.226;6.904;2022-11-21T07:43:29;99751.00;;;5.18;100.00
4836;BME280;2432;51.226;6.904;2022-11-21T07:45:55;99738.06;;;5.17;100.00
4836;BME280;2432;51.226;6.904;2022-11-21T07:48:22;99742.34;;;5.19;100.00
4836;BME280;2432;51.226;6.904;2022-11-21T07:50:48;99743.22;;;5.21;100.00
4836;BME280;2432;51.226;6.904;2022-11-21T07:53:15;99740.53;;;5.26;100.00
4836;BME280;2432;51.226;6.904;2022-11-21T07:55:41;99748.28;;;5.27;100.00
4836;BME280;2432;51.226;6.904;2022-11-21T07:58:11;99751.72;;;5.29;100.00
4836;BME280;2432;51.226;6.904;2022-11-21T08:00:39;99759.50;;;5.31;100.00
4836;BME280;2432;51.226;6.904;2022-11-21T08:03:06;99755.19;;;5.31;100.00
4836;BME280;2432;51.226;6.904;2022-11-21T08:05:36;99746.50;;;5.34;100.00
4836;BME280;2432;51.226;6.904;2022-11-21T08:08:07;99740.38;;;5.36;100.00
4836;BME280;2432;51.226;6.904;2022-11-21T08:10:39;99740.38;;;5.36;100.00
4836;BME280;2432;51.226;6.904;2022-11-21T08:13:06;99739.50;;;5.39;100.00
4836;BME280;2432;51.226;6.904;2022-11-21T08:15:33;99732.50;;;5.44;100.00
4836;BME280;2432;51.226;6.904;2022-11-21T08:18:12;99726.41;;;5.48;100.00
4836;BME280;2432;51.226;6.904;2022-11-21T08:20:39;99721.16;;;5.51;100.00
4836;BME280;2432;51.226;6.904;2022-11-21T08:23:06;99709.84;;;5.55;100.00
4836;BME280;2432;51.226;6.904;2022-11-21T08:25:35;99712.41;;;5.58;100.00
4836;BME280;2432;51.226;6.904;2022-11-21T08:28:02;99728.78;;;5.62;100.00
4836;BME280;2432;51.226;6.904;2022-11-21T08:30:30;99724.44;;;5.62;100.00
4836;BME280;2432;51.226;6.904;2022-11-21T08:32:57;99731.34;;;5.63;100.00
4836;BME280;2432;51.226;6.904;2022-11-21T08:35:25;99731.34;;;5.65;100.00
4836;BME280;2432;51.226;6.904;2022-11-21T08:37:58;99729.59;;;5.67;100.00
4836;BME280;2432;51.226;6.904;2022-11-21T08:40:27;99724.38;;;5.68;100.00
4836;BME280;2432;51.226;6.904;2022-11-21T08:42:58;99720.00;;;5.71;100.00
4836;BME280;2432;51.226;6.904;2022-11-21T08:45:24;99718.22;;;5.74;100.00
4836;BME280;2432;51.226;6.904;2022-11-21T08:47:52;99717.38;;;5.72;100.00
4836;BME280;2432;51.226;6.904;2022-11-21T08:50:19;99723.41;;;5.73;100.00
4836;BME280;2432;51.226;6.904;2022-11-21T08:52:45;99722.56;;;5.74;100.00
4836;BME280;2432;51.226;6.904;2022-11-21T08:55:12;99720.81;;;5.74;100.00
4836;BME280;2432;51.226;6.904;2022-11-21T08:57:39;99722.53;;;5.75;100.00
4836;BME280;2432;51.226;6.904;2022-11-21T09:00:07;99725.97;;;5.77;100.00
4836;BME280;2432;51.226;6.904;2022-11-21T09:02:34;99721.66;;;5.76;100.00
4836;BME280;2432;51.226;6.904;2022-11-21T09:05:04;99718.13;;;5.80;100.00
4836;BME280;2432;51.226;6.904;2022-11-21T09:07:31;99711.22;;;5.79;100.00
4836;BME280;2432;51.226;6.904;2022-11-21T09:09:58;99712.03;;;5.83;100.00
4836;BME280;2432;51.226;6.904;2022-11-21T09:12:24;99714.59;;;5.84;100.00
4836;BME280;2432;51.226;6.904;2022-11-21T09:14:50;99717.16;;;5.86;100.00
4836;BME280;2432;51.226;6.904;2022-11-21T09:17:36;99716.22;;;5.90;100.00
4836;BME280;2432;51.226;6.904;2022-11-21T09:20:21;99703.25;;;5.90;100.00
4836;BME280;2432;51.226;6.904;2022-11-21T09:22:48;99688.50;;;5.93;100.00
4836;BME280;2432;51.226;6.904;2022-11-21T09:25:14;99693.63;;;5.97;100.00
4836;BME280;2432;51.226;6.904;2022-11-21T09:27:41;99691.06;;;5.95;100.00
4836;BME280;2432;51.226;6.904;2022-11-21T09:30:07;99691.00;;;6.00;100.00
4836;BME280;2432;51.226;6.904;2022-11-21T09:32:34;99690.09;;;6.02;100.00
4836;BME280;2432;51.226;6.904;2022-11-21T09:35:02;99689.16;;;6.06;100.00
4836;BME280;2432;51.226;6.904;2022-11-21T09:37:29;99686.50;;;6.09;100.00
4836;BME280;2432;51.226;6.904;2022-11-21T09:39:55;99683.81;;;6.14;100.00
4836;BME280;2432;51.226;6.904;2022-11-21T09:45:22;99688.84;;;6.23;100.00
4836;BME280;2432;51.226;6.904;2022-11-21T09:47:51;99690.53;;;6.27;100.00
4836;BME280;2432;51.226;6.904;2022-11-21T09:50:30;99687.06;;;6.25;100.00
4836;BME280;2432;51.226;6.904;2022-11-21T09:53:13;99689.69;;;6.25;100.00
4836;BME280;2432;51.226;6.904;2022-11-21T09:55:48;99683.59;;;6.28;100.00
4836;BME280;2432;51.226;6.904;2022-11-21T09:58:36;99674.75;;;6.36;100.00
4836;BME280;2432;51.226;6.904;2022-11-21T10:01:04;99679.91;;;6.39;100.00
4836;BME280;2432;51.226;6.904;2022-11-21T10:03:36;99669.44;;;6.42;100.00
4836;BME280;2432;51.226;6.904;2022-11-21T10:06:13;99668.56;;;6.43;100.00
4836;BME280;2432;51.226;6.904;2022-11-21T10:08:54;99664.22;;;6.42;100.00
4836;BME280;2432;51.226;6.904;2022-11-21T10:15:02;99658.00;;;6.53;100.00
4836;BME280;2432;51.226;6.904;2022-11-21T10:21:02;99651.75;;;6.61;100.00
4836;BME280;2432;51.226;6.904;2022-11-21T10:26:22;99646.56;;;6.60;100.00
4836;BME280;2432;51.226;6.904;2022-11-21T10:29:10;99646.63;;;6.57;100.00
4836;BME280;2432;51.226;6.904;2022-11-21T10:31:42;99636.22;;;6.57;100.00
4836;BME280;2432;51.226;6.904;2022-11-21T10:34:12;99629.31;;;6.56;100.00
4836;BME280;2432;51.226;6.904;2022-11-21T10:36:44;99626.69;;;6.57;100.00
4836;BME280;2432;51.226;6.904;2022-11-21T10:39:21;99629.28;;;6.57;100.00
4836;BME280;2432;51.226;6.904;2022-11-21T10:41:59;99619.72;;;6.58;100.00
4836;BME280;2432;51.226;6.904;2022-11-21T10:44:28;99613.69;;;6.57;100.00
4836;BME280;2432;51.226;6.904;2022-11-21T10:47:19;99611.91;;;6.61;100.00
4836;BME280;2432;51.226;6.904;2022-11-21T10:50:31;99607.47;;;6.64;100.00
4836;BME280;2432;51.226;6.904;2022-11-21T10:53:07;99603.00;;;6.71;100.00
4836;BME280;2432;51.226;6.904;2022-11-21T10:56:05;99591.66;;;6.73;100.00
4836;BME280;2432;51.226;6.904;2022-11-21T10:58:42;99594.28;;;6.73;100.00
4836;BME280;2432;51.226;6.904;2022-11-21T11:03:46;99592.53;;;6.74;100.00
4836;BME280;2432;51.226;6.904;2022-11-21T11:06:33;99586.44;;;6.75;100.00
4836;BME280;2432;51.226;6.904;2022-11-21T11:08:59;99578.59;;;6.76;100.00
4836;BME280;2432;51.226;6.904;2022-11-21T11:11:26;99572.44;;;6.80;100.00
4836;BME280;2432;51.226;6.904;2022-11-21T11:14:04;99572.31;;;6.85;100.00
4836;BME280;2432;51.226;6.904;2022-11-21T11:16:34;99567.06;;;6.88;100.00
4836;BME280;2432;51.226;6.904;2022-11-21T11:19:20;99562.72;;;6.89;100.00
4836;BME280;2432;51.226;6.904;2022-11-21T11:22:00;99554.88;;;6.90;100.00
4836;BME280;2432;51.226;6.904;2022-11-21T11:24:27;99541.78;;;6.93;100.00
4836;BME280;2432;51.226;6.904;2022-11-21T11:29:28;99534.91;;;6.91;100.00
4836;BME280;2432;51.226;6.904;2022-11-21T11:32:03;99533.25;;;6.88;100.00
4836;BME280;2432;51.226;6.904;2022-11-21T11:34:44;99522.88;;;6.87;100.00
4836;BME280;2432;51.226;6.904;2022-11-21T11:37:29;99510.75;;;6.87;100.00
4836;BME280;2432;51.226;6.904;2022-11-21T11:40:27;99516.78;;;6.88;100.00
4836;BME280;2432;51.226;6.904;2022-11-21T11:43:28;99510.66;;;6.90;100.00
4836;BME280;2432;51.226;6.904;2022-11-21T11:49:44;99494.91;;;6.96;100.00
4836;BME280;2432;51.226;6.904;2022-11-21T11:52:36;99496.44;;;7.03;100.00
4836;BME280;2432;51.226;6.904;2022-11-21T11:55:12;99495.41;;;7.11;100.00
4836;BME280;2432;51.226;6.904;2022-11-21T11:57:42;99481.41;;;7.16;100.00
4836;BME280;2432;51.226;6.904;2022-11-21T12:00:44;99483.00;;;7.20;100.00
4836;BME280;2432;51.226;6.904;2022-11-21T12:03:23;99479.41;;;7.26;100.00
4836;BME280;2432;51.226;6.904;2022-11-21T12:06:05;99470.56;;;7.33;100.00
4836;BME280;2432;51.226;6.904;2022-11-21T12:08:40;99478.88;;;7.46;100.00
4836;BME280;2432;51.226;6.904;2022-11-21T12:11:18;99474.13;;;7.61;100.00
4836;BME280;2432;51.226;6.904;2022-11-21T12:14:12;99463.50;;;7.69;100.00
4836;BME280;2432;51.226;6.904;2022-11-21T12:17:04;99455.00;;;7.62;100.00
4836;BME280;2432;51.226;6.904;2022-11-21T12:19:32;99451.56;;;7.62;100.00
4836;BME280;2432;51.226;6.904;2022-11-21T12:21:59;99451.59;;;7.60;100.00
4836;BME280;2432;51.226;6.904;2022-11-21T12:24:27;99442.19;;;7.55;100.00
4836;BME280;2432;51.226;6.904;2022-11-21T12:27:18;99442.13;;;7.58;100.00
4836;BME280;2432;51.226;6.904;2022-11-21T12:43:27;99413.09;;;7.41;100.00
4836;BME280;2432;51.226;6.904;2022-11-21T12:55:23;99374.09;;;7.37;100.00
4836;BME280;2432;51.226;6.904;2022-11-21T13:03:32;99375.69;;;7.43;100.00
4836;BME280;2432;51.226;6.904;2022-11-21T13:06:04;99371.16;;;7.50;100.00
4836;BME280;2432;51.226;6.904;2022-11-21T13:08:34;99369.41;;;7.50;100.00
4836;BME280;2432;51.226;6.904;2022-11-21T13:17:22;99366.72;;;7.53;100.00
4836;BME280;2432;51.226;6.904;2022-11-21T13:25:12;99346.50;;;7.61;100.00
4836;BME280;2432;51.226;6.904;2022-11-21T13:27:51;99346.50;;;7.61;100.00
4836;BME280;2432;51.226;6.904;2022-11-21T13:30:19;99346.47;;;7.63;100.00
4836;BME280;2432;51.226;6.904;2022-11-21T13:32:52;99336.91;;;7.63;100.00
4836;BME280;2432;51.226;6.904;2022-11-21T13:43:23;99315.13;;;7.66;100.00
4836;BME280;2432;51.226;6.904;2022-11-21T13:45:59;99302.19;;;7.63;100.00
4836;BME280;2432;51.226;6.904;2022-11-21T14:02:57;99264.31;;;7.53;100.00
4836;BME280;2432;51.226;6.904;2022-11-21T14:08:26;99250.31;;;7.55;100.00
4836;BME280;2432;51.226;6.904;2022-11-21T14:10:54;99241.72;;;7.53;100.00
4836;BME280;2432;51.226;6.904;2022-11-21T14:13:33;99235.75;;;7.50;100.00
4836;BME280;2432;51.226;6.904;2022-11-21T14:18:44;99225.41;;;7.47;100.00
4836;BME280;2432;51.226;6.904;2022-11-21T14:21:39;99222.81;;;7.47;100.00
4836;BME280;2432;51.226;6.904;2022-11-21T14:24:17;99225.41;;;7.47;100.00
4836;BME280;2432;51.226;6.904;2022-11-21T14:26:47;99215.09;;;7.44;100.00
4836;BME280;2432;51.226;6.904;2022-11-21T14:29:37;99210.06;;;7.39;100.00
4836;BME280;2432;51.226;6.904;2022-11-21T14:32:03;99208.31;;;7.38;100.00
4836;BME280;2432;51.226;6.904;2022-11-21T14:34:31;99208.44;;;7.35;100.00
4836;BME280;2432;51.226;6.904;2022-11-21T14:37:02;99197.28;;;7.31;100.00
4836;BME280;2432;51.226;6.904;2022-11-21T14:39:32;99187.78;;;7.29;100.00
4836;BME280;2432;51.226;6.904;2022-11-21T14:42:14;99191.28;;;7.28;100.00
4836;BME280;2432;51.226;6.904;2022-11-21T14:44:41;99180.19;;;7.23;100.00
4836;BME280;2432;51.226;6.904;2022-11-21T14:47:16;99182.06;;;7.18;100.00
4836;BME280;2432;51.226;6.904;2022-11-21T14:49:53;99179.56;;;7.15;100.00
4836;BME280;2432;51.226;6.904;2022-11-21T14:52:25;99183.13;;;7.11;100.00
4836;BME280;2432;51.226;6.904;2022-11-21T14:54:54;99182.38;;;7.07;100.00
4836;BME280;2432;51.226;6.904;2022-11-21T14:57:41;99166.03;;;7.02;100.00
4836;BME280;2432;51.226;6.904;2022-11-21T15:00:14;99154.88;;;6.98;100.00
4836;BME280;2432;51.226;6.904;2022-11-21T15:03:00;99136.78;;;6.94;100.00
4836;BME280;2432;51.226;6.904;2022-11-21T15:05:33;99129.03;;;6.92;100.00
4836;BME280;2432;51.226;6.904;2022-11-21T15:08:23;99131.81;;;6.86;100.00
4836;BME280;2432;51.226;6.904;2022-11-21T15:11:10;99133.63;;;6.84;100.00
4836;BME280;2432;51.226;6.904;2022-11-21T15:13:38;99133.72;;;6.81;100.00
4836;BME280;2432;51.226;6.904;2022-11-21T15:16:26;99113.03;;;6.76;100.00
4836;BME280;2432;51.226;6.904;2022-11-21T15:18:53;99107.06;;;6.73;100.00